createdAt,value
2023-02-24T00:01:54.065Z,101311.88
2023-02-24T00:04:20.702Z,101312.34
2023-02-24T00:06:47.258Z,101310.44
2023-02-24T00:09:14.561Z,101312.53
2023-02-24T00:11:41.821Z,101306.44
2023-02-24T00:14:08.549Z,101302.22
2023-02-24T00:16:35.080Z,101297.50
2023-02-24T00:19:02.935Z,101292.69
2023-02-24T00:21:29.760Z,101289.59
2023-02-24T00:23:56.734Z,101288.88
2023-02-24T00:26:23.046Z,101289.50
2023-02-24T00:28:49.360Z,101282.66
2023-02-24T00:31:16.833Z,101280.03
2023-02-24T00:33:43.968Z,101283.84
2023-02-24T00:36:13.162Z,101279.09
2023-02-24T00:38:40.218Z,101277.19
2023-02-24T00:41:10.133Z,101267.50
2023-02-24T00:43:36.430Z,101270.44
2023-02-24T00:46:02.797Z,101266.13
2023-02-24T00:48:29.125Z,101268.88
2023-02-24T00:50:55.456Z,101262.44
2023-02-24T00:53:23.081Z,101256.34
2023-02-24T00:55:58.244Z,101256.25
2023-02-24T00:58:24.593Z,101255.28
2023-02-24T01:00:50.869Z,101254.34
2023-02-24T01:03:17.183Z,101257.47
2023-02-24T01:05:43.493Z,101260.19
2023-02-24T01:08:10.132Z,101241.28
2023-02-24T01:10:37.795Z,101247.81
2023-02-24T01:13:04.122Z,101251.28
2023-02-24T01:15:30.504Z,101250.41
2023-02-24T01:17:56.815Z,101250.84
2023-02-24T01:20:23.101Z,101243.91
2023-02-24T01:22:50.527Z,101250.31
2023-02-24T01:25:16.892Z,101244.50
2023-02-24T01:27:44.509Z,101235.75
2023-02-24T01:30:11.701Z,101239.88
2023-02-24T01:32:38.216Z,101233.56
2023-02-24T01:35:04.958Z,101224.63
2023-02-24T01:37:31.338Z,101223.44
2023-02-24T01:39:57.661Z,101225.84
2023-02-24T01:42:23.940Z,101218.91
2023-02-24T01:45:11.721Z,101220.31
2023-02-24T01:47:38.316Z,101212.81
2023-02-24T01:50:05.061Z,101209.69
2023-02-24T01:52:34.521Z,101216.81
2023-02-24T01:55:02.952Z,101208.97
2023-02-24T01:57:30.674Z,101201.91
2023-02-24T01:59:58.373Z,101195.41
2023-02-24T02:02:26.120Z,101192.44
2023-02-24T02:04:54.997Z,101184.47
2023-02-24T02:07:22.051Z,101178.25
2023-02-24T02:09:50.117Z,101174.84
2023-02-24T02:12:16.401Z,101171.28
2023-02-24T02:14:44.094Z,101172.25
2023-02-24T02:17:17.026Z,101159.56
2023-02-24T02:19:58.210Z,101164.81
2023-02-24T02:22:43.704Z,101166.16
2023-02-24T02:25:13.700Z,101154.19
2023-02-24T02:27:51.801Z,101138.81
2023-02-24T02:30:34.089Z,101143.22
2023-02-24T02:33:15.321Z,101139.34
2023-02-24T02:35:45.610Z,101139.47
2023-02-24T02:38:14.401Z,101131.56
2023-02-24T02:40:44.427Z,101132.53
2023-02-24T02:43:13.740Z,101127.03
2023-02-24T02:45:43.651Z,101130.41
2023-02-24T02:48:15.460Z,101125.16
2023-02-24T02:50:45.628Z,101116.06
2023-02-24T02:53:14.299Z,101116.19
2023-02-24T02:55:42.029Z,101111.84
2023-02-24T02:58:12.025Z,101114.63
2023-02-24T03:00:40.718Z,101119.06
2023-02-24T03:03:09.419Z,101115.22
2023-02-24T03:05:38.380Z,101107.97
2023-02-24T03:08:06.920Z,101116.06
2023-02-24T03:10:33.760Z,101118.59
2023-02-24T03:13:02.351Z,101108.91
2023-02-24T03:15:30.416Z,101112.38
2023-02-24T03:17:59.066Z,101110.41
2023-02-24T03:20:29.375Z,101105.38
2023-02-24T03:23:00.821Z,101099.28
2023-02-24T03:25:34.830Z,101090.22
2023-02-24T03:28:03.946Z,101092.00
2023-02-24T03:30:33.716Z,101091.06
2023-02-24T03:33:02.336Z,101095.22
2023-02-24T03:35:29.807Z,101092.28
2023-02-24T03:37:58.220Z,101092.75
2023-02-24T03:40:25.114Z,101088.44
2023-02-24T03:42:56.944Z,101086.84
2023-02-24T03:45:23.320Z,101079.59
2023-02-24T03:47:50.539Z,101069.06
2023-02-24T03:50:18.053Z,101076.38
2023-02-24T03:52:48.410Z,101065.75
2023-02-24T03:55:20.971Z,101065.88
2023-02-24T03:57:50.983Z,101059.88
2023-02-24T04:00:21.103Z,101059.97
2023-02-24T04:02:51.001Z,101053.03
2023-02-24T04:05:20.616Z,101047.66
2023-02-24T04:07:51.401Z,101058.19
2023-02-24T04:10:21.785Z,101054.81
2023-02-24T04:12:50.449Z,101053.88
2023-02-24T04:15:22.394Z,101049.56
2023-02-24T04:17:50.364Z,101048.34
2023-02-24T04:20:17.925Z,101046.09
2023-02-24T04:22:46.712Z,101043.47
2023-02-24T04:25:14.424Z,101039.28
2023-02-24T04:27:41.706Z,101043.59
2023-02-24T04:30:10.523Z,101039.03
2023-02-24T04:32:38.820Z,101033.78
2023-02-24T04:35:05.831Z,101032.34
2023-02-24T04:37:32.418Z,101037.81
2023-02-24T04:39:58.745Z,101033.63
2023-02-24T04:42:25.106Z,101024.66
2023-02-24T04:44:51.491Z,101035.19
2023-02-24T04:47:17.811Z,101019.31
2023-02-24T04:49:45.436Z,101018.25
2023-02-24T04:52:12.064Z,101022.72
2023-02-24T04:54:38.475Z,101033.47
2023-02-24T04:57:04.806Z,101016.00
2023-02-24T04:59:31.237Z,101018.00
2023-02-24T05:01:57.551Z,101024.34
2023-02-24T05:04:23.846Z,101022.19
2023-02-24T05:06:51.508Z,101020.53
2023-02-24T05:09:18.302Z,101012.97
2023-02-24T05:11:45.601Z,101007.59
2023-02-24T05:14:13.464Z,101004.56
2023-02-24T05:16:40.158Z,100999.53
2023-02-24T05:19:06.461Z,100993.44
2023-02-24T05:21:32.784Z,100993.44
2023-02-24T05:24:00.686Z,100986.28
2023-02-24T05:26:27.123Z,100979.34
2023-02-24T05:28:54.722Z,100982.06
2023-02-24T05:31:22.406Z,100979.44
2023-02-24T05:33:49.754Z,100985.53
2023-02-24T05:36:17.143Z,100979.69
2023-02-24T05:38:43.948Z,100976.09
2023-02-24T05:41:12.539Z,100980.41
2023-02-24T05:43:38.853Z,100977.78
2023-02-24T05:46:05.182Z,100977.91
2023-02-24T05:48:31.462Z,100971.56
2023-02-24T05:50:57.787Z,100975.16
2023-02-24T05:53:24.090Z,100960.44
2023-02-24T05:55:50.400Z,100966.97
2023-02-24T05:58:18.059Z,100960.56
2023-02-24T06:00:44.358Z,100947.84
2023-02-24T06:03:10.722Z,100944.78
2023-02-24T06:05:37.046Z,100936.25
2023-02-24T06:08:03.322Z,100945.09
2023-02-24T06:10:30.438Z,100924.41
2023-02-24T06:12:56.885Z,100922.84
2023-02-24T06:15:24.593Z,100922.63
2023-02-24T06:17:50.902Z,100918.44
2023-02-24T06:20:17.279Z,100922.22
2023-02-24T06:22:43.589Z,100917.22
2023-02-24T06:25:10.355Z,100915.53
2023-02-24T06:27:36.688Z,100923.41
2023-02-24T06:30:03.303Z,100914.59
2023-02-24T06:32:31.143Z,100910.28
2023-02-24T06:34:57.639Z,100904.78
2023-02-24T06:37:24.108Z,100902.50
2023-02-24T06:39:50.450Z,100909.03
2023-02-24T06:42:16.787Z,100905.66
2023-02-24T06:44:43.146Z,100906.75
2023-02-24T06:47:11.048Z,100905.66
2023-02-24T06:49:38.719Z,100905.66
2023-02-24T06:52:05.418Z,100893.50
2023-02-24T06:54:31.908Z,100894.78
2023-02-24T06:56:58.795Z,100893.47
2023-02-24T06:59:25.448Z,100891.53
2023-02-24T07:01:51.755Z,100891.66
2023-02-24T07:04:18.224Z,100889.16
2023-02-24T07:06:46.816Z,100890.59
2023-02-24T07:09:14.055Z,100886.41
2023-02-24T07:11:41.611Z,100884.00
2023-02-24T07:14:07.976Z,100875.06
2023-02-24T07:16:34.766Z,100866.19
2023-02-24T07:19:02.223Z,100862.75
2023-02-24T07:21:29.729Z,100859.28
2023-02-24T07:23:59.125Z,100864.41
2023-02-24T07:26:26.383Z,100855.56
2023-02-24T07:28:53.426Z,100860.00
2023-02-24T07:31:22.511Z,100860.72
2023-02-24T07:33:49.534Z,100858.94
2023-02-24T07:36:16.952Z,100850.00
2023-02-24T07:38:43.906Z,100848.31
2023-02-24T07:41:12.846Z,100842.84
2023-02-24T07:43:40.005Z,100849.53
2023-02-24T07:46:07.372Z,100851.31
2023-02-24T07:48:33.842Z,100852.56
2023-02-24T07:51:00.299Z,100850.03
2023-02-24T07:53:26.621Z,100845.72
2023-02-24T07:55:52.939Z,100837.63
2023-02-24T07:58:20.600Z,100837.25
2023-02-24T08:00:46.870Z,100834.72
2023-02-24T08:03:13.489Z,100838.22
2023-02-24T08:05:39.831Z,100826.19
2023-02-24T08:08:06.176Z,100826.03
2023-02-24T08:10:32.491Z,100819.97
2023-02-24T08:12:58.831Z,100817.81
2023-02-24T08:15:26.751Z,100814.22
2023-02-24T08:17:53.847Z,100806.34
2023-02-24T08:20:20.508Z,100801.81
2023-02-24T08:22:48.773Z,100806.59
2023-02-24T08:25:16.112Z,100801.44
2023-02-24T08:27:42.496Z,100804.69
2023-02-24T08:30:09.600Z,100793.81
2023-02-24T08:32:38.452Z,100790.34
2023-02-24T08:35:06.804Z,100784.13
2023-02-24T08:37:34.299Z,100786.28
2023-02-24T08:40:00.695Z,100784.97
2023-02-24T08:42:27.041Z,100785.31
2023-02-24T08:44:53.370Z,100777.19
2023-02-24T08:47:19.678Z,100769.78
2023-02-24T08:49:47.352Z,100769.19
2023-02-24T08:52:13.673Z,100760.91
2023-02-24T08:54:40.003Z,100758.28
2023-02-24T08:57:06.341Z,100765.72
2023-02-24T08:59:32.682Z,100762.47
2023-02-24T09:02:04.676Z,100757.81
2023-02-24T09:04:31.438Z,100758.97
2023-02-24T09:07:11.234Z,100759.31
2023-02-24T09:09:38.326Z,100758.72
2023-02-24T09:12:04.628Z,100740.97
2023-02-24T09:14:31.785Z,100743.72
2023-02-24T09:16:58.888Z,100736.31
2023-02-24T09:19:25.211Z,100735.22
2023-02-24T09:21:51.494Z,100729.72
2023-02-24T09:24:19.151Z,100711.94
2023-02-24T09:26:45.461Z,100721.25
2023-02-24T09:29:11.773Z,100715.50
2023-02-24T09:31:38.194Z,100709.00
2023-02-24T09:34:04.568Z,100702.28
2023-02-24T09:36:30.948Z,100702.28
2023-02-24T09:38:58.132Z,100690.06
2023-02-24T09:41:27.860Z,100692.53
2023-02-24T09:43:54.210Z,100685.22
2023-02-24T09:46:20.721Z,100680.53
2023-02-24T09:48:51.311Z,100683.06
2023-02-24T09:51:17.789Z,100676.22
2023-02-24T09:53:44.105Z,100682.34
2023-02-24T09:56:16.448Z,100669.16
2023-02-24T09:58:46.681Z,100663.50
2023-02-24T10:01:20.839Z,100663.78
2023-02-24T10:03:51.729Z,100669.88
2023-02-24T10:06:19.390Z,100669.34
2023-02-24T10:08:48.052Z,100657.72
2023-02-24T10:11:14.588Z,100655.75
2023-02-24T10:13:46.339Z,100654.53
2023-02-24T10:16:16.452Z,100649.09
2023-02-24T10:18:45.124Z,100648.00
2023-02-24T10:21:15.311Z,100648.25
2023-02-24T10:23:48.656Z,100645.13
2023-02-24T10:26:23.234Z,100640.91
2023-02-24T10:28:55.628Z,100626.94
2023-02-24T10:31:27.504Z,100638.84
2023-02-24T10:33:56.281Z,100636.63
2023-02-24T10:36:23.802Z,100639.13
2023-02-24T10:38:50.139Z,100636.22
2023-02-24T10:41:16.698Z,100632.97
2023-02-24T10:43:53.003Z,100623.31
2023-02-24T10:46:35.026Z,100616.13
2023-02-24T10:49:10.021Z,100613.56
2023-02-24T10:51:37.277Z,100611.69
2023-02-24T10:54:08.031Z,100615.84
2023-02-24T10:56:34.389Z,100603.91
2023-02-24T10:59:01.890Z,100602.59
2023-02-24T11:01:30.782Z,100599.94
2023-02-24T11:04:01.297Z,100595.50
2023-02-24T11:06:28.716Z,100591.09
2023-02-24T11:08:56.728Z,100596.94
2023-02-24T11:11:24.377Z,100591.09
2023-02-24T11:13:51.271Z,100583.75
2023-02-24T11:16:17.811Z,100578.53
2023-02-24T11:18:47.885Z,100571.31
2023-02-24T11:21:16.203Z,100577.28
2023-02-24T11:23:44.613Z,100580.91
2023-02-24T11:26:14.476Z,100567.28
2023-02-24T11:28:45.970Z,100564.41
2023-02-24T11:31:20.081Z,100560.22
2023-02-24T11:33:51.303Z,100549.13
2023-02-24T11:36:22.356Z,100548.81
2023-02-24T11:38:52.767Z,100541.47
2023-02-24T11:41:22.925Z,100534.69
2023-02-24T11:43:54.612Z,100533.44
2023-02-24T11:46:22.045Z,100520.75
2023-02-24T11:48:53.125Z,100520.25
2023-02-24T11:51:21.009Z,100507.44
2023-02-24T11:53:49.581Z,100509.56
2023-02-24T11:56:18.044Z,100503.75
2023-02-24T11:58:47.302Z,100510.81
2023-02-24T12:01:16.480Z,100497.50
2023-02-24T12:03:48.373Z,100498.47
2023-02-24T12:06:19.262Z,100502.19
2023-02-24T12:08:49.138Z,100511.06
2023-02-24T12:11:17.930Z,100499.03
2023-02-24T12:13:48.634Z,100496.66
2023-02-24T12:16:17.416Z,100495.44
2023-02-24T12:18:45.615Z,100484.28
2023-02-24T12:21:14.918Z,100484.16
2023-02-24T12:23:43.915Z,100481.66
2023-02-24T12:26:17.060Z,100475.41
2023-02-24T12:28:53.405Z,100473.59
2023-02-24T12:31:26.016Z,100467.06
2023-02-24T12:34:00.500Z,100467.06
2023-02-24T12:36:52.534Z,100463.06
2023-02-24T12:39:21.585Z,100457.09
2023-02-24T12:41:55.077Z,100454.31
2023-02-24T12:44:26.264Z,100454.31
2023-02-24T12:46:56.049Z,100455.41
2023-02-24T12:49:32.350Z,100455.28
2023-02-24T12:52:04.195Z,100449.88
2023-02-24T12:54:37.434Z,100437.63
2023-02-24T12:57:08.808Z,100435.16
2023-02-24T12:59:37.635Z,100434.00
2023-02-24T13:02:06.224Z,100424.03
2023-02-24T13:04:38.498Z,100422.50
2023-02-24T13:07:09.997Z,100418.63
2023-02-24T13:09:40.307Z,100412.13
2023-02-24T13:12:12.379Z,100418.06
2023-02-24T13:14:40.202Z,100412.66
2023-02-24T13:17:15.923Z,100407.63
2023-02-24T13:19:42.897Z,100406.97
2023-02-24T13:22:20.135Z,100410.72
2023-02-24T13:24:56.883Z,100395.03
2023-02-24T13:27:24.471Z,100396.25
2023-02-24T13:29:51.618Z,100403.38
2023-02-24T13:32:25.504Z,100398.50
2023-02-24T13:34:51.897Z,100397.78
2023-02-24T13:37:26.075Z,100392.53
2023-02-24T13:39:52.405Z,100389.06
2023-02-24T13:42:23.067Z,100379.06
2023-02-24T13:44:52.308Z,100378.38
2023-02-24T13:47:36.388Z,100353.53
2023-02-24T13:50:10.781Z,100350.06
2023-02-24T13:52:42.615Z,100362.00
2023-02-24T13:55:13.990Z,100352.56
2023-02-24T13:57:57.994Z,100365.06
2023-02-24T14:00:30.381Z,100363.66
2023-02-24T14:02:57.064Z,100349.09
2023-02-24T14:05:26.285Z,100354.78
2023-02-24T14:07:53.541Z,100359.78
2023-02-24T14:10:21.153Z,100354.78
2023-02-24T14:12:48.234Z,100350.47
2023-02-24T14:15:16.467Z,100363.13
2023-02-24T14:17:44.170Z,100346.34
2023-02-24T14:20:14.179Z,100343.69
2023-02-24T14:22:43.523Z,100351.75
2023-02-24T14:25:10.710Z,100341.19
2023-02-24T14:27:37.428Z,100329.94
2023-02-24T14:30:04.130Z,100331.34
2023-02-24T14:32:32.601Z,100334.25
2023-02-24T14:35:00.272Z,100318.44
2023-02-24T14:37:28.120Z,100315.09
2023-02-24T14:39:55.344Z,100314.66
2023-02-24T14:42:21.995Z,100311.75
2023-02-24T14:44:49.189Z,100319.38
2023-02-24T14:47:16.101Z,100318.25
2023-02-24T14:49:42.542Z,100317.56
2023-02-24T14:52:14.143Z,100313.34
2023-02-24T14:54:43.303Z,100313.91
2023-02-24T14:57:11.484Z,100308.59
2023-02-24T14:59:39.816Z,100295.94
2023-02-24T15:02:13.178Z,100284.94
2023-02-24T15:04:40.764Z,100289.78
2023-02-24T15:07:14.416Z,100286.06
2023-02-24T15:09:42.982Z,100289.28
2023-02-24T15:12:18.942Z,100295.22
2023-02-24T15:14:48.755Z,100283.31
2023-02-24T15:17:16.651Z,100294.97
2023-02-24T15:19:43.439Z,100285.25
2023-02-24T15:22:18.198Z,100276.09
2023-02-24T15:24:45.888Z,100276.00
2023-02-24T15:27:33.162Z,100286.22
2023-02-24T15:30:00.705Z,100269.97
2023-02-24T15:32:28.130Z,100273.41
2023-02-24T15:34:54.611Z,100279.09
2023-02-24T15:37:22.308Z,100262.81
2023-02-24T15:39:51.290Z,100275.38
2023-02-24T15:42:21.443Z,100265.31
2023-02-24T15:44:51.766Z,100259.78
2023-02-24T15:47:21.252Z,100264.13
2023-02-24T15:49:47.588Z,100257.16
2023-02-24T15:52:23.474Z,100249.78
2023-02-24T15:54:51.165Z,100254.97
2023-02-24T15:57:18.117Z,100236.53
2023-02-24T15:59:44.636Z,100234.94
2023-02-24T16:02:12.796Z,100251.72
2023-02-24T16:04:39.132Z,100258.34
2023-02-24T16:07:06.587Z,100254.28
2023-02-24T16:09:34.844Z,100248.28
2023-02-24T16:12:03.032Z,100248.63
2023-02-24T16:14:29.334Z,100255.25
2023-02-24T16:16:55.750Z,100254.63
2023-02-24T16:19:22.087Z,100253.09
2023-02-24T16:21:48.441Z,100252.81
2023-02-24T16:24:14.767Z,100254.13
2023-02-24T16:26:41.143Z,100254.19
2023-02-24T16:29:12.129Z,100256.34
2023-02-24T16:31:39.160Z,100244.59
2023-02-24T16:34:05.961Z,100252.00
2023-02-24T16:36:32.259Z,100249.50
2023-02-24T16:38:58.574Z,100247.88
2023-02-24T16:41:24.858Z,100251.53
2023-02-24T16:43:51.213Z,100248.81
2023-02-24T16:46:20.052Z,100250.09
2023-02-24T16:48:47.673Z,100256.44
2023-02-24T16:51:14.626Z,100256.47
2023-02-24T16:53:41.018Z,100262.06
2023-02-24T16:56:07.755Z,100265.97
2023-02-24T16:58:34.075Z,100261.13
2023-02-24T17:01:01.157Z,100262.34
2023-02-24T17:03:31.079Z,100273.88
2023-02-24T17:05:57.421Z,100283.72
2023-02-24T17:08:23.986Z,100280.69
2023-02-24T17:10:50.660Z,100292.06
2023-02-24T17:13:18.429Z,100284.84
2023-02-24T17:15:44.968Z,100296.34
2023-02-24T17:18:11.651Z,100292.59
2023-02-24T17:20:41.694Z,100298.13
2023-02-24T17:23:09.461Z,100296.34
2023-02-24T17:25:35.760Z,100300.09
2023-02-24T17:28:03.393Z,100297.59
2023-02-24T17:30:32.091Z,100300.09
2023-02-24T17:32:58.492Z,100305.78
2023-02-24T17:35:24.947Z,100298.56
2023-02-24T17:37:52.982Z,100309.53
2023-02-24T17:40:19.536Z,100313.00
2023-02-24T17:42:45.858Z,100317.88
2023-02-24T17:45:12.795Z,100319.81
2023-02-24T17:47:39.426Z,100315.09
2023-02-24T17:50:06.424Z,100319.00
2023-02-24T17:52:33.004Z,100312.47
2023-02-24T17:55:00.722Z,100320.38
2023-02-24T17:57:27.073Z,100335.66
2023-02-24T17:59:53.413Z,100336.75
2023-02-24T18:02:19.808Z,100338.56
2023-02-24T18:04:48.742Z,100350.78
2023-02-24T18:07:15.163Z,100341.47
2023-02-24T18:09:41.603Z,100342.25
2023-02-24T18:12:09.278Z,100342.88
2023-02-24T18:14:35.598Z,100344.53
2023-02-24T18:17:01.880Z,100357.72
2023-02-24T18:19:28.202Z,100348.97
2023-02-24T18:21:54.503Z,100360.72
2023-02-24T18:24:20.828Z,100366.50
2023-02-24T18:26:47.119Z,100370.41
2023-02-24T18:29:14.794Z,100372.34
2023-02-24T18:31:41.419Z,100363.25
2023-02-24T18:34:07.816Z,100361.97
2023-02-24T18:36:34.259Z,100364.72
2023-02-24T18:39:00.633Z,100375.03
2023-02-24T18:41:27.238Z,100376.16
2023-02-24T18:43:54.657Z,100372.41
2023-02-24T18:46:23.522Z,100379.34
2023-02-24T18:48:50.038Z,100372.13
2023-02-24T18:51:17.780Z,100364.50
2023-02-24T18:53:44.495Z,100375.03
2023-02-24T18:56:12.824Z,100370.16
2023-02-24T18:58:39.210Z,100379.16
2023-02-24T19:01:10.434Z,100375.69
2023-02-24T19:03:38.063Z,100372.91
2023-02-24T19:06:04.523Z,100370.69
2023-02-24T19:08:30.836Z,100379.69
2023-02-24T19:10:57.216Z,100375.56
2023-02-24T19:13:23.510Z,100383.28
2023-02-24T19:15:50.118Z,100382.63
2023-02-24T19:18:16.561Z,100406.91
2023-02-24T19:20:44.334Z,100401.38
2023-02-24T19:23:10.676Z,100400.16
2023-02-24T19:25:37.043Z,100402.63
2023-02-24T19:28:03.434Z,100406.75
2023-02-24T19:30:29.764Z,100406.09
2023-02-24T19:32:56.173Z,100409.88
2023-02-24T19:35:22.549Z,100400.03
2023-02-24T19:37:50.223Z,100401.25
2023-02-24T19:40:16.678Z,100394.75
2023-02-24T19:42:43.009Z,100391.63
2023-02-24T19:45:09.696Z,100393.84
2023-02-24T19:47:36.036Z,100396.06
2023-02-24T19:50:02.351Z,100387.19
2023-02-24T19:52:28.660Z,100384.78
2023-02-24T19:54:56.338Z,100395.56
2023-02-24T19:57:22.665Z,100397.78
2023-02-24T19:59:49.500Z,100405.97
2023-02-24T20:02:15.795Z,100405.00
2023-02-24T20:04:42.111Z,100406.22
2023-02-24T20:07:08.523Z,100403.69
2023-02-24T20:09:34.854Z,100410.69
2023-02-24T20:12:02.623Z,100399.06
2023-02-24T20:14:29.647Z,100397.38
2023-02-24T20:16:56.053Z,100397.88
2023-02-24T20:19:22.384Z,100399.91
2023-02-24T20:21:48.685Z,100408.56
2023-02-24T20:24:16.200Z,100414.47
2023-02-24T20:26:43.902Z,100415.00
2023-02-24T20:29:11.642Z,100421.34
2023-02-24T20:31:38.023Z,100420.63
2023-02-24T20:34:05.747Z,100426.25
2023-02-24T20:36:32.249Z,100426.53
2023-02-24T20:38:59.021Z,100422.34
2023-02-24T20:41:26.166Z,100436.84
2023-02-24T20:43:52.466Z,100429.13
2023-02-24T20:46:21.395Z,100429.59
2023-02-24T20:48:47.905Z,100434.16
2023-02-24T20:51:14.222Z,100435.22
2023-02-24T20:53:55.602Z,100435.44
2023-02-24T20:56:23.404Z,100433.53
2023-02-24T20:58:50.975Z,100441.69
2023-02-24T21:01:18.640Z,100436.16
2023-02-24T21:03:46.529Z,100441.19
2023-02-24T21:06:13.692Z,100446.69
2023-02-24T21:08:40.210Z,100451.25
2023-02-24T21:11:08.888Z,100454.34
2023-02-24T21:13:39.119Z,100467.63
2023-02-24T21:16:06.620Z,100473.91
2023-02-24T21:18:32.963Z,100466.72
2023-02-24T21:21:00.596Z,100461.94
2023-02-24T21:23:27.321Z,100461.94
2023-02-24T21:25:53.675Z,100467.34
2023-02-24T21:28:20.337Z,100462.78
2023-02-24T21:30:47.053Z,100463.25
2023-02-24T21:33:13.492Z,100462.22
2023-02-24T21:35:39.796Z,100463.69
2023-02-24T21:38:07.469Z,100459.31
2023-02-24T21:40:34.114Z,100464.84
2023-02-24T21:43:00.432Z,100459.31
2023-02-24T21:45:26.984Z,100452.00
2023-02-24T21:47:54.011Z,100464.13
2023-02-24T21:50:21.009Z,100462.94
2023-02-24T21:52:47.315Z,100460.91
2023-02-24T21:55:15.412Z,100458.69
2023-02-24T21:57:43.289Z,100465.69
2023-02-24T22:00:10.769Z,100466.19
2023-02-24T22:02:37.071Z,100461.38
2023-02-24T22:05:03.464Z,100458.16
2023-02-24T22:07:29.754Z,100470.13
2023-02-24T22:09:56.038Z,100471.25
2023-02-24T22:12:23.700Z,100476.97
2023-02-24T22:14:50.048Z,100471.88
2023-02-24T22:17:16.424Z,100472.69
2023-02-24T22:19:42.715Z,100472.75
2023-02-24T22:22:09.036Z,100476.22
2023-02-24T22:24:35.359Z,100480.25
2023-02-24T22:27:01.676Z,100483.47
2023-02-24T22:29:29.334Z,100485.84
2023-02-24T22:31:55.748Z,100479.63
2023-02-24T22:34:22.145Z,100486.25
2023-02-24T22:36:48.439Z,100486.09
2023-02-24T22:39:14.986Z,100487.50
2023-02-24T22:41:41.274Z,100485.38
2023-02-24T22:44:07.656Z,100495.91
2023-02-24T22:46:36.343Z,100499.31
2023-02-24T22:49:04.635Z,100494.06
2023-02-24T22:51:31.012Z,100478.44
2023-02-24T22:53:57.370Z,100485.69
2023-02-24T22:56:25.295Z,100479.09
2023-02-24T22:58:51.785Z,100490.88
2023-02-24T23:01:19.203Z,100486.75
2023-02-24T23:03:46.947Z,100491.94
2023-02-24T23:06:14.050Z,100493.09
2023-02-24T23:08:41.503Z,100493.03
2023-02-24T23:11:09.219Z,100488.97
2023-02-24T23:13:35.500Z,100493.47
2023-02-24T23:16:02.023Z,100502.84
2023-02-24T23:18:28.310Z,100493.53
2023-02-24T23:20:58.368Z,100502.06
2023-02-24T23:23:24.712Z,100505.66
2023-02-24T23:25:51.400Z,100525.03
2023-02-24T23:28:17.786Z,100518.16
2023-02-24T23:30:44.145Z,100512.22
2023-02-24T23:33:10.517Z,100510.06
2023-02-24T23:35:36.885Z,100515.25
2023-02-24T23:38:04.560Z,100511.97
2023-02-24T23:40:35.954Z,100517.00
2023-02-24T23:43:07.628Z,100515.22
2023-02-24T23:45:36.162Z,100524.94
2023-02-24T23:48:02.624Z,100524.34
2023-02-24T23:50:28.975Z,100532.63
2023-02-24T23:52:55.273Z,100525.88
2023-02-24T23:55:22.898Z,100529.03
2023-02-24T23:57:49.244Z,100531.53
